HIDDEN DAM (HENSLEY) (HID)

Elevation: 561' · FRESNO R basin · Operator: US Army Corps of Engineers

Provisional data, subject to change.
Query executed Saturday at 6:45:19   clock

Select a sensor type for a plot of data.
Note: Reservoir Flows are daily averages.

Earlier

Date RES ELE    STORAGE    RES CHG    TOC STO    ABV TOC    OUTFLOW    INFLOW    PPT INC    TEMP MN    TEMP MX    WINDLEN    EVP PAN   
 FEET   AF   AF   AF   AF   CFS   CFS   INCHES   DEG F   DEG F   MILES   INCHES  
11/21/2014 447.82 4920 -- 31429 -- 0 2 0.00 6 11 71 0.03
11/22/2014 447.82 4920 -- 30714 -- 0 0 0.02 9 14 82 0.04
11/23/2014 447.82 4920 -- 30000 -25080 0 1 0.01 8 16 71 0.05
11/24/2014 447.82 4920 0 29286 -24366 0 1 0.02 6 17 103 0.07
11/25/2014 447.81 4917 -3 28571 -23654 0 -1 0.00 5 19 102 0.08
11/26/2014 447.80 4914 -3 27857 -22943 0 -0 0.01 6 20 110 0.09
11/27/2014 447.80 4914 0 27143 -22229 0 1 0.00 7 23 114 0.11
11/28/2014 447.80 4914 0 26429 -21515 0 1 0.01 7 24 115 0.12
11/29/2014 447.79 4911 -3 25714 -20803 0 -0 0.00 7 23 128 0.12
11/30/2014 447.79 4911 0 25000 -20089 0 1 0.00 10 19 157 0.11
12/01/2014 447.78 4909 -2 25000 -20091 0 0 0.00 10 24 131 0.12
12/02/2014 447.82 4920 11 25000 -20080 0 6 0.28 11 17 126 0.04
12/03/2014 447.81 4917 -3 25000 -20083 0 -0 0.02 16 22 176 0.11
12/04/2014 447.81 4917 0 25000 -20083 0 1 0.01 12 20 119 0.07
12/05/2014 447.83 4923 6 25000 -20077 0 4 0.00 13 18 106 0.06
12/06/2014 447.87 4934 11 25000 -20066 0 6 0.00 12 22 92 0.08
12/07/2014 447.90 4942 8 25000 -20058 0 5 0.00 10 20 103 0.08
12/08/2014 447.93 4951 9 25000 -20049 0 5 0.00 8 20 97 0.08
12/09/2014 447.96 4959 8 25000 -20041 0 5 0.00 7 17 89 0.05
12/10/2014 447.99 4968 9 25000 -20032 0 5 0.00 8 16 87 0.04
12/11/2014 448.00 4970 2 25000 -20030 0 2 0.06 11 19 242 0.10
12/12/2014 448.12 5004 34 25000 -19996 0 17 1.30 9 11 119 0.03
12/13/2014 448.38 5078 74 25000 -19922 0 38 0.00 6 12 61 0.03
12/14/2014 448.54 5124 46 25000 -19876 0 24 0.00 4 13 83 0.04
12/15/2014 448.62 5147 23 25000 -19853 0 12 0.13 5 15 125 0.06
12/16/2014 448.74 5182 35 25000 -19818 0 19 0.60 10 17 131 0.08
12/17/2014 448.89 5225 43 25000 -19775 0 22 0.35 8 14 80 0.04
12/18/2014 449.07 5278 53 25000 -19722 0 27 0.01 6 16 97 0.06
12/19/2014 449.17 5307 29 25000 -19693 0 -- -- 7 16 -- 0.05
12/20/2014 -- -- -- -- -- -- -- -- -- -- -- --

Later | Latest

Warning! This data is preliminary and subject to revision.

Show HID Map | Plot HID Data | 1 Month HID Data | Real-Time HID Data | HID Info